Time;durP1;ratioP1;P1;durP2;ratioP2;P2;SDS_P1;SDS_P2;PMS_P1;PMS_P2;Temp;Humidity;BMP_temperature;BMP_pressure;BME280_temperature;BME280_humidity;BME280_pressure;Samples;Min_cycle;Max_cycle;Signal;HPM_P1;HPM_P2
2022/10/17 00:01:18;;;;;;;;;;;;;;;14.38;66.09;102101.66;5044940;28;19946;-60
2022/10/17 00:03:43;;;;;;;;;;;;;;;14.37;66.04;102108.72;5051830;28;19925;-60
2022/10/17 00:06:10;;;;;;;;;;;;;;;14.40;66.15;102120.97;5046345;28;20452;-61
2022/10/17 00:08:36;;;;;;;;;;;;;;;14.41;66.06;102118.22;5050110;28;19932;-59
2022/10/17 00:11:03;;;;;;;;;;;;;;;14.41;66.19;102117.38;5052626;28;19917;-62
2022/10/17 00:13:29;;;;;;;;;;;;;;;14.40;66.21;102121.81;5048897;28;19952;-64
2022/10/17 00:15:54;;;;;;;;;;;;;;;14.42;66.22;102119.09;5051901;28;19960;-59
2022/10/17 00:18:19;;;;;;;;;;;;;;;14.42;66.22;102124.41;5050438;28;19971;-62
2022/10/17 00:20:45;;;;;;;;;;;;;;;14.40;66.30;102118.31;5046633;28;19933;-62
2022/10/17 00:23:10;;;;;;;;;;;;;;;14.41;66.22;102109.44;5051785;28;19920;-62
2022/10/17 00:25:35;;;;;;;;;;;;;;;14.43;66.36;102110.22;5051350;28;19924;-60
2022/10/17 00:28:01;;;;;;;;;;;;;;;14.44;66.36;102107.47;5055191;28;19932;-59
2022/10/17 00:30:26;;;;;;;;;;;;;;;14.46;66.28;102094.16;5031368;28;20382;-60
2022/10/17 00:32:52;;;;;;;;;;;;;;;14.48;66.18;102086.97;5046325;28;19917;-60
2022/10/17 00:35:17;;;;;;;;;;;;;;;14.48;66.38;102093.16;5046472;28;19938;-59
2022/10/17 00:37:42;;;;;;;;;;;;;;;14.48;66.20;102087.84;5048607;28;19920;-59
2022/10/17 00:40:08;;;;;;;;;;;;;;;14.49;66.23;102088.69;5051930;28;20027;-60
2022/10/17 00:42:33;;;;;;;;;;;;;;;14.49;66.29;102096.66;5047285;28;19924;-60
2022/10/17 00:45:01;;;;;;;;;;;;;;;14.48;66.38;102097.56;5051958;28;20004;-59
2022/10/17 00:47:27;;;;;;;;;;;;;;;14.47;66.22;102090.56;5032841;28;19920;-59
2022/10/17 00:49:52;;;;;;;;;;;;;;;14.46;66.24;102097.66;5051165;28;20327;-62
2022/10/17 00:52:20;;;;;;;;;;;;;;;14.46;66.39;102099.44;5052281;28;19916;-59
2022/10/17 00:54:47;;;;;;;;;;;;;;;14.47;66.29;102098.50;5044398;28;19936;-60
2022/10/17 00:57:14;;;;;;;;;;;;;;;14.46;66.23;102110.03;5045930;28;19924;-59
2022/10/17 00:59:41;;;;;;;;;;;;;;;14.46;66.28;102110.03;5035463;28;19998;-60
2022/10/17 01:02:12;;;;;;;;;;;;;;;14.45;66.23;102109.19;5043519;28;20409;-60
2022/10/17 01:04:39;;;;;;;;;;;;;;;14.47;66.26;102101.16;5036693;28;20019;-62
2022/10/17 01:07:04;;;;;;;;;;;;;;;14.46;66.32;102105.63;5032096;28;20457;-62
2022/10/17 01:09:30;;;;;;;;;;;;;;;14.46;66.42;102104.75;5040970;28;19925;-61
2022/10/17 01:12:13;;;;;;;;;;;;;;;14.46;66.40;102095.03;5047655;28;19923;-62
2022/10/17 01:14:54;;;;;;;;;;;;;;;14.45;66.45;102089.78;5040581;28;19924;-59
2022/10/17 01:17:19;;;;;;;;;;;;;;;14.44;66.43;102106.66;5045532;28;19971;-61
2022/10/17 01:20:03;;;;;;;;;;;;;;;14.44;66.57;102101.34;5045987;28;19957;-59
2022/10/17 01:22:52;;;;;;;;;;;;;;;14.44;66.63;102102.19;5044744;28;19931;-62
2022/10/17 01:25:29;;;;;;;;;;;;;;;14.43;66.62;102110.22;5032254;28;20618;-62
2022/10/17 01:28:00;;;;;;;;;;;;;;;14.44;66.58;102102.19;5039079;28;20008;-62
2022/10/17 01:30:25;;;;;;;;;;;;;;;14.43;66.65;102100.47;5045456;28;20394;-60
2022/10/17 01:33:04;;;;;;;;;;;;;;;14.45;66.61;102100.38;5041352;28;19917;-59
2022/10/17 01:35:32;;;;;;;;;;;;;;;14.46;66.67;102097.66;5049608;28;19920;-63
2022/10/17 01:38:11;;;;;;;;;;;;;;;14.49;66.65;102107.25;5044357;28;20278;-62
2022/10/17 01:40:37;;;;;;;;;;;;;;;14.49;66.57;102101.94;5039495;28;20340;-63
2022/10/17 01:43:06;;;;;;;;;;;;;;;14.50;66.62;102101.00;5042215;28;19995;-63
2022/10/17 01:45:31;;;;;;;;;;;;;;;14.51;66.58;102096.59;5042811;28;20518;-63
2022/10/17 01:47:59;;;;;;;;;;;;;;;14.49;66.47;102088.69;5051145;28;19928;-58
2022/10/17 01:50:27;;;;;;;;;;;;;;;14.49;66.54;102099.28;5043959;28;19927;-63
2022/10/17 01:52:55;;;;;;;;;;;;;;;14.48;66.61;102095.81;5045414;28;20353;-60
2022/10/17 01:55:41;;;;;;;;;;;;;;;14.49;66.69;102096.66;5050924;28;19952;-59
2022/10/17 01:58:13;;;;;;;;;;;;;;;14.49;66.73;102094.00;5051036;28;19917;-59
2022/10/17 02:00:41;;;;;;;;;;;;;;;14.49;66.85;102096.66;5050021;28;20021;-61
2022/10/17 02:03:08;;;;;;;;;;;;;;;14.49;66.83;102094.00;5050786;28;19975;-61
2022/10/17 02:05:38;;;;;;;;;;;;;;;14.48;67.01;102089.63;5049810;28;19978;-63
2022/10/17 02:08:04;;;;;;;;;;;;;;;14.48;66.98;102087.84;5049834;28;20412;-59
2022/10/17 02:10:38;;;;;;;;;;;;;;;14.50;67.07;102081.63;5051339;28;19952;-59
2022/10/17 02:13:18;;;;;;;;;;;;;;;14.50;66.94;102073.69;5047730;28;19921;-59
2022/10/17 02:15:50;;;;;;;;;;;;;;;14.52;67.10;102072.66;5045425;28;19917;-60
2022/10/17 02:18:18;;;;;;;;;;;;;;;14.53;67.12;102081.44;5052457;28;19971;-59
2022/10/17 02:20:52;;;;;;;;;;;;;;;14.53;67.09;102079.66;5047819;28;20398;-58
2022/10/17 02:23:35;;;;;;;;;;;;;;;14.54;67.06;102073.44;5050140;28;19932;-58
2022/10/17 02:26:12;;;;;;;;;;;;;;;14.54;66.96;102076.06;5051099;28;19946;-58
2022/10/17 02:28:43;;;;;;;;;;;;;;;14.54;67.08;102081.38;5051899;28;19921;-61
2022/10/17 02:31:13;;;;;;;;;;;;;;;14.51;66.99;102070.09;5047631;28;20513;-59
2022/10/17 02:33:48;;;;;;;;;;;;;;;14.51;67.08;102067.44;5048729;28;19916;-59
2022/10/17 02:36:17;;;;;;;;;;;;;;;14.50;66.91;102069.22;5044556;28;19917;-59
2022/10/17 02:38:44;;;;;;;;;;;;;;;14.47;67.06;102072.03;5049428;28;19913;-62
2022/10/17 02:41:12;;;;;;;;;;;;;;;14.45;67.06;102071.25;5045988;28;19921;-62
2022/10/17 02:43:38;;;;;;;;;;;;;;;14.41;67.12;102065.28;5046556;28;19923;-62
2022/10/17 02:46:04;;;;;;;;;;;;;;;14.40;67.17;102062.72;5049112;28;19913;-62
2022/10/17 02:48:35;;;;;;;;;;;;;;;14.38;67.16;102065.44;5049459;28;19936;-63
2022/10/17 02:51:06;;;;;;;;;;;;;;;14.37;67.30;102076.09;5050929;28;19928;-64
2022/10/17 02:53:38;;;;;;;;;;;;;;;14.33;67.27;102070.97;5046478;28;19928;-61
2022/10/17 02:56:07;;;;;;;;;;;;;;;14.30;67.31;102073.78;5044257;28;19980;-61
2022/10/17 02:58:34;;;;;;;;;;;;;;;14.28;67.33;102065.09;5041372;28;20434;-60
2022/10/17 03:01:00;;;;;;;;;;;;;;;14.27;67.42;102065.13;5045223;28;20391;-63
2022/10/17 03:03:26;;;;;;;;;;;;;;;14.26;67.36;102066.94;5050437;28;19920;-58
2022/10/17 03:05:52;;;;;;;;;;;;;;;14.25;67.44;102067.88;5045161;28;19917;-61
2022/10/17 03:08:18;;;;;;;;;;;;;;;14.24;67.35;102067.94;5044549;28;19978;-61
2022/10/17 03:10:44;;;;;;;;;;;;;;;14.23;67.48;102071.53;5044938;28;19921;-62
2022/10/17 03:13:09;;;;;;;;;;;;;;;14.20;67.32;102061.97;5043794;28;19932;-61
2022/10/17 03:15:35;;;;;;;;;;;;;;;14.18;67.30;102070.00;5042257;28;19929;-62
2022/10/17 03:18:00;;;;;;;;;;;;;;;14.18;67.34;102069.13;5043865;28;19991;-62
2022/10/17 03:20:25;;;;;;;;;;;;;;;14.15;67.31;102070.16;5044750;28;20791;-61
2022/10/17 03:22:50;;;;;;;;;;;;;;;14.14;67.38;102067.59;5044087;28;19963;-63
2022/10/17 03:25:16;;;;;;;;;;;;;;;14.12;67.38;102072.94;5044315;28;19920;-63
2022/10/17 03:27:41;;;;;;;;;;;;;;;14.10;67.36;102073.97;5046191;28;19928;-61
2022/10/17 03:30:07;;;;;;;;;;;;;;;14.10;67.45;102071.31;5040021;28;19929;-63
2022/10/17 03:32:33;;;;;;;;;;;;;;;14.11;67.59;102073.03;5044982;28;20330;-65
2022/10/17 03:34:58;;;;;;;;;;;;;;;14.10;67.51;102071.31;5044478;28;20289;-65
2022/10/17 03:37:24;;;;;;;;;;;;;;;14.09;67.56;102070.44;5043966;28;19994;-62
2022/10/17 03:39:49;;;;;;;;;;;;;;;14.08;67.49;102068.75;5044671;28;19920;-65
2022/10/17 03:42:14;;;;;;;;;;;;;;;14.09;67.45;102064.31;5044574;28;19972;-64
2022/10/17 03:44:39;;;;;;;;;;;;;;;14.08;67.53;102060.81;5043046;28;19924;-63
2022/10/17 03:47:05;;;;;;;;;;;;;;;14.06;67.53;102062.69;5041158;28;20350;-64
2022/10/17 03:49:30;;;;;;;;;;;;;;;14.06;67.53;102054.75;5042053;28;19975;-64
2022/10/17 03:51:55;;;;;;;;;;;;;;;14.06;67.53;102054.75;5043450;28;19917;-64
2022/10/17 03:54:21;;;;;;;;;;;;;;;14.07;67.50;102055.59;5044899;28;19924;-64
2022/10/17 03:56:46;;;;;;;;;;;;;;;14.07;67.61;102060.88;5046234;28;20283;-63
2022/10/17 03:59:12;;;;;;;;;;;;;;;14.07;67.65;102060.88;5049412;28;20027;-65
2022/10/17 04:01:38;;;;;;;;;;;;;;;14.07;67.61;102067.03;5044938;28;20422;-64
2022/10/17 04:04:03;;;;;;;;;;;;;;;14.07;67.81;102067.03;5048195;28;19951;-64
2022/10/17 04:06:28;;;;;;;;;;;;;;;14.09;67.72;102072.25;5044933;28;19921;-64
2022/10/17 04:08:54;;;;;;;;;;;;;;;14.10;67.75;102076.63;5047050;28;20290;-66
2022/10/17 04:11:20;;;;;;;;;;;;;;;14.10;67.66;102074.81;5034168;28;20386;-65
2022/10/17 04:13:45;;;;;;;;;;;;;;;14.10;67.63;102060.75;5051548;28;20027;-64
2022/10/17 04:16:15;;;;;;;;;;;;;;;14.11;67.67;102059.81;5042157;28;20079;-64
2022/10/17 04:18:40;;;;;;;;;;;;;;;14.10;67.67;102061.56;5045567;28;19928;-62
2022/10/17 04:21:06;;;;;;;;;;;;;;;14.11;67.85;102042.13;5039059;28;19917;-64
2022/10/17 04:23:32;;;;;;;;;;;;;;;14.13;67.76;102047.34;5038221;28;19925;-63
2022/10/17 04:25:58;;;;;;;;;;;;;;;14.14;67.82;102051.72;5039306;28;20019;-63
2022/10/17 04:28:24;;;;;;;;;;;;;;;14.15;67.88;102051.63;5040823;28;19933;-64
2022/10/17 04:30:59;;;;;;;;;;;;;;;14.17;67.85;102048.88;5027107;28;19978;-66
2022/10/17 04:33:25;;;;;;;;;;;;;;;14.18;67.83;102048.81;5035206;28;19943;-65
2022/10/17 04:35:57;;;;;;;;;;;;;;;14.19;67.89;102041.72;5045356;28;20023;-65
2022/10/17 04:38:22;;;;;;;;;;;;;;;14.21;67.87;102033.72;5042000;28;20067;-64
2022/10/17 04:40:47;;;;;;;;;;;;;;;14.23;67.83;102032.69;5040988;28;20465;-63
2022/10/17 04:43:12;;;;;;;;;;;;;;;14.22;67.78;102033.63;5038181;28;19999;-61
2022/10/17 04:45:38;;;;;;;;;;;;;;;14.23;67.72;102027.41;5038870;28;19921;-64
2022/10/17 04:48:03;;;;;;;;;;;;;;;14.22;67.83;102017.75;5044072;28;19925;-64
2022/10/17 04:50:28;;;;;;;;;;;;;;;14.21;67.90;102018.69;5046751;28;19927;-64
2022/10/17 04:52:54;;;;;;;;;;;;;;;14.20;67.87;102019.59;5034905;28;20070;-64
2022/10/17 04:55:19;;;;;;;;;;;;;;;14.20;67.88;102018.75;5032230;28;19929;-64
2022/10/17 04:57:44;;;;;;;;;;;;;;;14.18;67.93;102022.34;5036612;28;20043;-64
2022/10/17 05:00:10;;;;;;;;;;;;;;;14.17;68.01;102017.13;5030291;28;20378;-65
2022/10/17 05:02:35;;;;;;;;;;;;;;;14.16;67.91;102018.91;5034348;28;19971;-65
2022/10/17 05:05:01;;;;;;;;;;;;;;;14.16;67.92;102015.41;5037297;28;20343;-64
2022/10/17 05:07:26;;;;;;;;;;;;;;;14.16;67.96;102012.75;5038844;28;19932;-65
2022/10/17 05:09:51;;;;;;;;;;;;;;;14.15;68.00;102011.91;5039792;28;19944;-63
2022/10/17 05:12:16;;;;;;;;;;;;;;;14.17;68.02;102011.81;5037844;28;19925;-63
2022/10/17 05:14:42;;;;;;;;;;;;;;;14.17;67.94;102015.34;5037174;28;19982;-65
2022/10/17 05:17:07;;;;;;;;;;;;;;;14.20;68.05;102018.75;5042136;28;19925;-62
2022/10/17 05:19:32;;;;;;;;;;;;;;;14.21;68.05;102012.53;5041497;28;19929;-65
2022/10/17 05:21:58;;;;;;;;;;;;;;;14.22;68.05;102012.44;5043270;28;19947;-64
2022/10/17 05:24:23;;;;;;;;;;;;;;;14.24;67.96;102021.16;5042737;28;19955;-64
2022/10/17 05:26:49;;;;;;;;;;;;;;;14.25;68.06;102017.59;5044724;28;19917;-65
2022/10/17 05:29:15;;;;;;;;;;;;;;;14.26;68.03;102024.59;5043094;28;19948;-63
2022/10/17 05:31:40;;;;;;;;;;;;;;;14.27;67.98;102025.44;5043326;28;19967;-65
2022/10/17 05:34:05;;;;;;;;;;;;;;;14.26;68.05;102027.25;5045296;28;19920;-64
2022/10/17 05:36:31;;;;;;;;;;;;;;;14.26;68.16;102023.72;5044241;28;19929;-65
2022/10/17 05:38:56;;;;;;;;;;;;;;;14.28;68.06;102027.16;5044773;28;20401;-64
2022/10/17 05:41:21;;;;;;;;;;;;;;;14.27;68.08;102028.94;5040868;28;20346;-65
2022/10/17 05:43:47;;;;;;;;;;;;;;;14.27;68.08;102028.09;5045520;28;20564;-63
2022/10/17 05:46:12;;;;;;;;;;;;;;;14.28;68.09;102030.66;5043016;28;19920;-64
2022/10/17 05:48:37;;;;;;;;;;;;;;;14.29;68.18;102037.63;5037572;28;19975;-64
2022/10/17 05:51:05;;;;;;;;;;;;;;;14.28;68.06;102038.59;5044644;28;20309;-65
2022/10/17 05:53:32;;;;;;;;;;;;;;;14.29;68.07;102032.34;5043843;28;19956;-64
2022/10/17 05:55:58;;;;;;;;;;;;;;;14.29;68.15;102034.16;5048870;28;19967;-64
2022/10/17 05:58:23;;;;;;;;;;;;;;;14.29;68.11;102042.94;5046962;28;19923;-64
2022/10/17 06:00:48;;;;;;;;;;;;;;;14.30;68.14;102039.34;5044301;28;19924;-63
2022/10/17 06:03:13;;;;;;;;;;;;;;;14.30;68.21;102042.00;5045695;28;19921;-65
2022/10/17 06:05:39;;;;;;;;;;;;;;;14.30;68.13;102039.34;5047511;28;20394;-66
2022/10/17 06:08:04;;;;;;;;;;;;;;;14.31;68.32;102050.81;5047818;28;20871;-62
2022/10/17 06:10:29;;;;;;;;;;;;;;;14.31;68.35;102049.00;5047204;28;19921;-64
2022/10/17 06:12:56;;;;;;;;;;;;;;;14.33;68.31;102046.31;5048066;28;19925;-64
2022/10/17 06:15:21;;;;;;;;;;;;;;;14.35;68.17;102054.16;5042338;28;20292;-65
2022/10/17 06:17:47;;;;;;;;;;;;;;;14.35;68.24;102057.66;5044977;28;19920;-64
2022/10/17 06:20:12;;;;;;;;;;;;;;;14.35;68.23;102059.44;5048713;28;19925;-64
2022/10/17 06:22:37;;;;;;;;;;;;;;;14.36;68.27;102055.88;5046151;28;19924;-64
2022/10/17 06:25:03;;;;;;;;;;;;;;;14.38;68.30;102051.34;5046360;28;19924;-64
2022/10/17 06:27:28;;;;;;;;;;;;;;;14.39;68.26;102053.91;5046251;28;19985;-64
2022/10/17 06:29:53;;;;;;;;;;;;;;;14.42;68.38;102063.50;5044771;28;20019;-65
2022/10/17 06:32:19;;;;;;;;;;;;;;;14.44;68.31;102057.16;5043919;28;19952;-64
2022/10/17 06:34:45;;;;;;;;;;;;;;;14.44;68.26;102061.63;5051002;28;20007;-64
2022/10/17 06:37:10;;;;;;;;;;;;;;;14.45;68.26;102058.00;5049710;28;20016;-62
2022/10/17 06:39:35;;;;;;;;;;;;;;;14.45;68.38;102053.59;5048561;28;19924;-63
2022/10/17 06:42:01;;;;;;;;;;;;;;;14.47;68.27;102061.44;5044252;28;19992;-65
2022/10/17 06:44:30;;;;;;;;;;;;;;;14.50;68.45;102063.94;5050869;28;19923;-65
2022/10/17 06:46:56;;;;;;;;;;;;;;;14.51;68.37;102057.69;5042284;28;19925;-65
2022/10/17 06:49:21;;;;;;;;;;;;;;;14.53;68.47;102070.84;5048674;28;19926;-64
2022/10/17 06:51:46;;;;;;;;;;;;;;;14.55;68.44;102061.03;5053351;28;19916;-64
2022/10/17 06:54:12;;;;;;;;;;;;;;;14.57;68.46;102065.31;5046472;28;19932;-65
2022/10/17 06:56:37;;;;;;;;;;;;;;;14.59;68.53;102063.47;5041756;28;20393;-65
2022/10/17 06:59:02;;;;;;;;;;;;;;;14.61;68.62;102066.84;5049212;28;19951;-63
2022/10/17 07:01:29;;;;;;;;;;;;;;;14.65;68.77;102064.91;5043393;28;19956;-64
2022/10/17 07:03:54;;;;;;;;;;;;;;;14.69;68.72;102068.28;5047424;28;19925;-63
2022/10/17 07:06:22;;;;;;;;;;;;;;;14.71;68.83;102067.25;5047339;28;19921;-63
2022/10/17 07:08:47;;;;;;;;;;;;;;;14.75;68.93;102066.16;5047490;28;20240;-62
2022/10/17 07:11:16;;;;;;;;;;;;;;;14.81;68.90;102082.66;5046600;28;19963;-63
2022/10/17 07:13:42;;;;;;;;;;;;;;;14.85;69.00;102079.75;5048600;28;19920;-65
2022/10/17 07:16:08;;;;;;;;;;;;;;;14.90;69.05;102080.34;5049430;28;19920;-64
2022/10/17 07:18:33;;;;;;;;;;;;;;;14.94;69.02;102081.88;5048280;28;20363;-64
2022/10/17 07:20:59;;;;;;;;;;;;;;;14.99;69.25;102080.78;5044742;28;20374;-64
2022/10/17 07:23:24;;;;;;;;;;;;;;;15.05;69.32;102076.00;5046216;28;19971;-62
2022/10/17 07:25:58;;;;;;;;;;;;;;;15.10;69.40;102073.09;5043462;28;20416;-64
2022/10/17 07:28:23;;;;;;;;;;;;;;;15.14;69.37;102069.34;5047332;28;19947;-64
2022/10/17 07:30:48;;;;;;;;;;;;;;;15.19;69.41;102062.00;5047415;28;20382;-63
2022/10/17 07:33:14;;;;;;;;;;;;;;;15.24;69.54;102067.03;5045719;28;19925;-59
2022/10/17 07:35:42;;;;;;;;;;;;;;;15.26;69.49;102061.63;5052839;28;19927;-60
2022/10/17 07:38:07;;;;;;;;;;;;;;;15.32;69.73;102061.28;5047922;28;19928;-60
2022/10/17 07:40:33;;;;;;;;;;;;;;;15.35;69.71;102058.47;5045789;28;20390;-59
2022/10/17 07:42:58;;;;;;;;;;;;;;;15.38;69.76;102058.28;5041822;28;20328;-59
2022/10/17 07:45:26;;;;;;;;;;;;;;;15.43;69.79;102056.22;5045299;28;20345;-60
2022/10/17 07:47:54;;;;;;;;;;;;;;;15.45;69.89;102054.34;5041162;28;20019;-59
2022/10/17 07:50:20;;;;;;;;;;;;;;;15.49;70.03;102042.63;5044371;28;19920;-61
2022/10/17 07:52:45;;;;;;;;;;;;;;;15.52;70.04;102053.03;5048357;28;20330;-59
2022/10/17 07:55:10;;;;;;;;;;;;;;;15.58;69.99;102061.56;5042639;28;19944;-59
2022/10/17 07:57:36;;;;;;;;;;;;;;;15.62;70.01;102063.13;5046660;28;20228;-63
2022/10/17 08:00:01;;;;;;;;;;;;;;;15.64;70.15;102058.59;5045911;28;19929;-61
2022/10/17 08:02:26;;;;;;;;;;;;;;;15.66;70.18;102065.50;5040659;28;19920;-60
2022/10/17 08:04:52;;;;;;;;;;;;;;;15.68;70.21;102062.75;5045461;28;20062;-63
2022/10/17 08:07:18;;;;;;;;;;;;;;;15.70;70.34;102061.72;5045197;28;19924;-59
2022/10/17 08:09:44;;;;;;;;;;;;;;;15.75;70.40;102060.59;5047157;28;20366;-59
2022/10/17 08:12:09;;;;;;;;;;;;;;;15.79;70.35;102063.00;5041565;28;19917;-62
2022/10/17 08:14:35;;;;;;;;;;;;;;;15.82;70.37;102060.13;5045136;28;20043;-63
2022/10/17 08:17:00;;;;;;;;;;;;;;;15.87;70.50;102069.66;5043378;28;20462;-60
2022/10/17 08:19:25;;;;;;;;;;;;;;;15.90;70.47;102066.84;5043655;28;19921;-62
2022/10/17 08:21:53;;;;;;;;;;;;;;;15.95;70.61;102064.78;5047316;28;20804;-59
2022/10/17 08:24:18;;;;;;;;;;;;;;;16.00;70.54;102067.97;5046642;28;19928;-59
2022/10/17 08:26:43;;;;;;;;;;;;;;;16.05;70.54;102068.56;5047936;28;19939;-61
2022/10/17 08:29:13;;;;;;;;;;;;;;;16.10;70.65;102062.97;5041075;28;19975;-61
2022/10/17 08:31:38;;;;;;;;;;;;;;;16.14;70.63;102060.03;5047462;28;20427;-61
2022/10/17 08:34:03;;;;;;;;;;;;;;;16.19;70.70;102070.38;5041366;28;19921;-61
2022/10/17 08:36:29;;;;;;;;;;;;;;;16.26;70.75;102068.22;5042961;28;19923;-61
2022/10/17 08:38:54;;;;;;;;;;;;;;;16.32;70.86;102075.81;5040471;28;19920;-63
2022/10/17 08:41:31;;;;;;;;;;;;;;;16.39;70.99;102066.53;5044187;28;19936;-59
2022/10/17 08:44:01;;;;;;;;;;;;;;;16.48;70.91;102065.13;5040799;28;19923;-60
2022/10/17 08:46:31;;;;;;;;;;;;;;;16.58;70.85;102068.03;5046010;28;19921;-61
2022/10/17 08:48:58;;;;;;;;;;;;;;;16.69;70.75;102060.25;5047994;28;19933;-59
2022/10/17 08:51:27;;;;;;;;;;;;;;;16.80;70.70;102056.06;5042649;28;19928;-63
2022/10/17 08:54:10;;;;;;;;;;;;;;;16.89;70.56;102052.81;5040797;28;19923;-64
2022/10/17 08:56:42;;;;;;;;;;;;;;;17.00;70.42;102053.03;5040812;28;19925;-59
2022/10/17 08:59:18;;;;;;;;;;;;;;;17.05;70.37;102045.59;5037063;28;20031;-61
2022/10/17 09:02:00;;;;;;;;;;;;;;;17.12;70.44;102040.72;5039644;28;20025;-60
2022/10/17 09:04:47;;;;;;;;;;;;;;;17.17;70.25;102040.41;5043280;28;20288;-60
2022/10/17 09:07:48;;;;;;;;;;;;;;;17.21;70.20;102040.13;5048794;28;20168;-64
2022/10/17 09:10:19;;;;;;;;;;;;;;;17.26;70.25;102042.50;4985413;28;19926;-61
2022/10/17 09:12:47;;;;;;;;;;;;;;;17.30;70.07;102041.34;5035431;28;20448;-60
2022/10/17 09:15:27;;;;;;;;;;;;;;;17.34;70.30;102045.50;5040034;28;20390;-60
2022/10/17 09:17:59;;;;;;;;;;;;;;;17.36;70.05;102038.25;5045710;28;20342;-60
2022/10/17 09:20:27;;;;;;;;;;;;;;;17.41;70.12;102042.44;5040124;28;20832;-59
2022/10/17 09:22:52;;;;;;;;;;;;;;;17.45;70.22;102035.97;5044736;28;19917;-61
2022/10/17 09:25:19;;;;;;;;;;;;;;;17.46;70.18;102032.34;5044896;28;20001;-60
2022/10/17 09:27:50;;;;;;;;;;;;;;;17.50;70.16;102029.38;5047622;28;19929;-59
2022/10/17 09:30:30;;;;;;;;;;;;;;;17.54;70.10;102027.34;5044159;28;19925;-61
2022/10/17 09:32:56;;;;;;;;;;;;;;;17.57;69.96;102039.59;5043776;28;19960;-63
2022/10/17 09:35:22;;;;;;;;;;;;;;;17.60;70.09;102037.59;5048268;28;20430;-59
2022/10/17 09:37:49;;;;;;;;;;;;;;;17.64;70.03;102038.25;5059931;28;20464;-62
2022/10/17 09:40:31;;;;;;;;;;;;;;;17.66;69.87;102037.16;5044361;28;20432;-59
2022/10/17 09:42:57;;;;;;;;;;;;;;;17.70;70.03;102045.78;5045051;28;20400;-60
2022/10/17 09:45:27;;;;;;;;;;;;;;;17.73;69.89;102040.25;5048540;28;19931;-62
2022/10/17 09:48:09;;;;;;;;;;;;;;;17.77;69.99;102040.94;5044917;28;19927;-62
2022/10/17 09:50:35;;;;;;;;;;;;;;;17.81;69.90;102045.06;5047428;28;20330;-61
2022/10/17 09:53:21;;;;;;;;;;;;;;;17.85;69.82;102051.91;5040014;28;19921;-64
2022/10/17 09:55:49;;;;;;;;;;;;;;;17.88;69.54;102048.16;5043776;28;20483;-64
2022/10/17 09:58:14;;;;;;;;;;;;;;;17.91;69.71;102047.97;5042911;28;20357;-59
2022/10/17 10:00:41;;;;;;;;;;;;;;;17.96;69.40;102049.34;5041630;28;19925;-60
2022/10/17 10:03:10;;;;;;;;;;;;;;;18.00;69.45;102047.34;5041760;28;19920;-63
2022/10/17 10:05:35;;;;;;;;;;;;;;;18.04;69.31;102051.53;5040949;28;19920;-59
2022/10/17 10:08:02;;;;;;;;;;;;;;;18.09;69.47;102049.41;5046737;28;19978;-62
2022/10/17 10:10:28;;;;;;;;;;;;;;;18.12;69.17;102041.22;5049624;28;20003;-62
2022/10/17 10:13:12;;;;;;;;;;;;;;;18.16;69.33;102044.50;5047296;28;20016;-59
2022/10/17 10:15:39;;;;;;;;;;;;;;;18.21;69.06;102055.69;5046853;28;20050;-64
2022/10/17 10:18:23;;;;;;;;;;;;;;;18.23;68.96;102045.75;5044928;28;19939;-63
2022/10/17 10:21:01;;;;;;;;;;;;;;;18.26;69.13;102042.88;5043077;28;20442;-61
2022/10/17 10:23:26;;;;;;;;;;;;;;;18.30;68.99;102045.34;5049315;28;19970;-61
2022/10/17 10:25:56;;;;;;;;;;;;;;;18.33;69.18;102037.16;5039389;28;20380;-62
2022/10/17 10:28:34;;;;;;;;;;;;;;;18.38;68.84;102029.66;5039838;28;19925;-62
2022/10/17 10:31:05;;;;;;;;;;;;;;;18.43;69.14;102032.88;5043519;28;19927;-62
2022/10/17 10:33:32;;;;;;;;;;;;;;;18.48;68.93;102024.53;5050565;28;19928;-60
2022/10/17 10:36:00;;;;;;;;;;;;;;;18.51;68.90;102022.53;5045996;28;19917;-62
2022/10/17 10:38:26;;;;;;;;;;;;;;;18.57;68.48;102023.91;5046836;28;19917;-63
2022/10/17 10:40:53;;;;;;;;;;;;;;;18.61;68.83;102017.34;5044947;28;19920;-64
2022/10/17 10:43:41;;;;;;;;;;;;;;;18.66;68.40;102017.06;5041507;28;19916;-64
2022/10/17 10:46:19;;;;;;;;;;;;;;;18.72;68.77;102024.59;5043020;28;19974;-59
2022/10/17 10:49:11;;;;;;;;;;;;;;;18.77;68.41;102011.78;5048871;28;20628;-65
2022/10/17 10:51:46;;;;;;;;;;;;;;;18.82;68.31;102011.44;5024616;28;20241;-61
2022/10/17 10:54:19;;;;;;;;;;;;;;;18.88;68.69;102014.53;5040146;28;19924;-66
2022/10/17 10:56:46;;;;;;;;;;;;;;;18.96;68.48;102008.66;5048480;28;19966;-65
2022/10/17 10:59:17;;;;;;;;;;;;;;;19.01;68.31;102011.84;5044901;28;19921;-65
2022/10/17 11:01:49;;;;;;;;;;;;;;;19.08;67.91;102016.72;5043282;28;20392;-65
2022/10/17 11:04:33;;;;;;;;;;;;;;;19.12;68.27;102013.72;5050843;28;20247;-64
2022/10/17 11:07:07;;;;;;;;;;;;;;;19.17;68.31;102016.88;5046009;28;19929;-63
2022/10/17 11:09:51;;;;;;;;;;;;;;;19.24;67.65;102013.78;5042859;28;19925;-64
2022/10/17 11:12:17;;;;;;;;;;;;;;;19.30;68.00;102010.63;5044546;28;19982;-64
2022/10/17 11:14:51;;;;;;;;;;;;;;;19.36;67.60;102004.84;5045528;28;20337;-64
2022/10/17 11:17:34;;;;;;;;;;;;;;;19.42;67.62;102004.38;5045882;28;20015;-64
2022/10/17 11:20:03;;;;;;;;;;;;;;;19.49;67.31;101997.59;5044542;28;19921;-64
2022/10/17 11:22:32;;;;;;;;;;;;;;;19.54;67.60;102002.59;5046342;28;19970;-66
2022/10/17 11:25:02;;;;;;;;;;;;;;;19.60;67.59;102001.25;5043834;28;20420;-65
2022/10/17 11:27:28;;;;;;;;;;;;;;;19.63;67.37;102001.03;5044586;28;19925;-63
2022/10/17 11:29:54;;;;;;;;;;;;;;;19.66;67.47;102003.47;5041869;28;19921;-66
2022/10/17 11:32:26;;;;;;;;;;;;;;;19.69;67.25;102008.59;5045491;28;20424;-65
2022/10/17 11:34:53;;;;;;;;;;;;;;;19.74;67.01;102001.06;5045032;28;19925;-65
2022/10/17 11:37:24;;;;;;;;;;;;;;;19.78;67.23;102004.34;5050055;28;19917;-65
2022/10/17 11:39:49;;;;;;;;;;;;;;;19.82;67.29;102000.47;5045770;28;19917;-66
2022/10/17 11:42:18;;;;;;;;;;;;;;;19.87;66.88;101997.50;5042731;28;19917;-65
2022/10/17 11:44:44;;;;;;;;;;;;;;;19.90;66.94;101992.75;5044991;28;19943;-65
2022/10/17 11:47:22;;;;;;;;;;;;;;;19.94;67.04;101988.00;5042307;28;20378;-65
2022/10/17 11:49:50;;;;;;;;;;;;;;;19.98;66.92;101978.81;5044840;28;19927;-64
2022/10/17 11:52:54;;;;;;;;;;;;;;;20.03;66.60;101968.63;5046867;28;20147;-66
2022/10/17 11:55:20;;;;;;;;;;;;;;;20.10;66.49;101972.47;4980829;28;19922;-65
2022/10/17 11:57:48;;;;;;;;;;;;;;;20.16;66.61;101951.59;4982271;28;19940;-65
2022/10/17 12:00:25;;;;;;;;;;;;;;;20.23;66.41;101959.00;5005206;28;20662;-64
2022/10/17 12:02:59;;;;;;;;;;;;;;;20.30;66.08;101956.69;5044737;28;19989;-64
2022/10/17 12:05:51;;;;;;;;;;;;;;;20.37;66.14;101960.56;5042205;28;20043;-66
2022/10/17 12:08:24;;;;;;;;;;;;;;;20.43;65.78;101953.88;5043862;28;20282;-66
2022/10/17 12:11:02;;;;;;;;;;;;;;;20.48;66.01;101958.88;5040627;28;19929;-63
2022/10/17 12:13:27;;;;;;;;;;;;;;;20.54;65.80;101961.88;5040264;28;20430;-64
2022/10/17 12:15:53;;;;;;;;;;;;;;;20.58;65.62;101959.81;5044726;28;20134;-65
2022/10/17 12:18:22;;;;;;;;;;;;;;;20.62;65.66;101957.72;5037473;28;19936;-65
2022/10/17 12:21:05;;;;;;;;;;;;;;;20.66;65.21;101953.84;5045521;28;20373;-65
2022/10/17 12:23:31;;;;;;;;;;;;;;;20.70;65.44;101948.09;5045606;28;19921;-64
2022/10/17 12:26:00;;;;;;;;;;;;;;;20.76;65.11;101945.94;5044597;28;20271;-65
2022/10/17 12:28:25;;;;;;;;;;;;;;;20.79;64.85;101945.69;5044836;28;19928;-65
2022/10/17 12:30:53;;;;;;;;;;;;;;;20.82;65.05;101948.09;5046302;28;19928;-66
2022/10/17 12:33:29;;;;;;;;;;;;;;;20.88;65.00;101950.28;5045261;28;19928;-66
2022/10/17 12:36:13;;;;;;;;;;;;;;;20.95;64.59;101948.78;5047711;28;19982;-62
2022/10/17 12:38:38;;;;;;;;;;;;;;;21.01;64.70;101948.28;5046130;28;19921;-61
2022/10/17 12:41:04;;;;;;;;;;;;;;;21.07;64.55;101943.41;5042706;28;20184;-61
2022/10/17 12:43:30;;;;;;;;;;;;;;;21.10;64.45;101943.16;5043661;28;19925;-63